sensor_id;sensor_type;location;lat;lon;timestamp;pressure;altitude;pressure_sealevel;temperature;humidity
73566;BME280;61846;52.970;-3.168;2022-09-29T00:02:17;99056.06;;;15.75;44.90
73566;BME280;61846;52.970;-3.168;2022-09-29T00:04:43;99056.87;;;15.15;45.72
73566;BME280;61846;52.970;-3.168;2022-09-29T00:07:08;99061.63;;;15.04;45.52
73566;BME280;61846;52.970;-3.168;2022-09-29T00:09:34;99060.61;;;15.33;45.16
73566;BME280;61846;52.970;-3.168;2022-09-29T00:11:59;99054.96;;;16.08;44.71
73566;BME280;61846;52.970;-3.168;2022-09-29T00:14:25;99064.25;;;15.67;44.67
73566;BME280;61846;52.970;-3.168;2022-09-29T00:16:51;99062.95;;;16.09;44.52
73566;BME280;61846;52.970;-3.168;2022-09-29T00:19:16;99063.30;;;15.77;44.83
73566;BME280;61846;52.970;-3.168;2022-09-29T00:21:41;99059.78;;;16.01;44.76
73566;BME280;61846;52.970;-3.168;2022-09-29T00:24:07;99063.26;;;15.33;45.70
73566;BME280;61846;52.970;-3.168;2022-09-29T00:26:32;99065.67;;;15.32;45.66
73566;BME280;61846;52.970;-3.168;2022-09-29T00:28:58;99068.17;;;15.76;45.05
73566;BME280;61846;52.970;-3.168;2022-09-29T00:31:25;99066.65;;;15.38;45.96
73566;BME280;61846;52.970;-3.168;2022-09-29T00:33:49;99068.89;;;15.83;45.81
73566;BME280;61846;52.970;-3.168;2022-09-29T00:36:17;99063.38;;;15.32;46.64
73566;BME280;61846;52.970;-3.168;2022-09-29T00:38:41;99064.02;;;15.83;46.05
73566;BME280;61846;52.970;-3.168;2022-09-29T00:41:07;99068.10;;;16.09;45.86
73566;BME280;61846;52.970;-3.168;2022-09-29T00:43:48;99065.07;;;15.64;45.84
73566;BME280;61846;52.970;-3.168;2022-09-29T00:45:56;99064.37;;;15.19;46.74
73566;BME280;61846;52.970;-3.168;2022-09-29T00:48:28;99067.67;;;15.53;46.34
73566;BME280;61846;52.970;-3.168;2022-09-29T00:50:49;99072.70;;;15.92;45.69
73566;BME280;61846;52.970;-3.168;2022-09-29T00:53:14;99075.56;;;16.14;45.25
73566;BME280;61846;52.970;-3.168;2022-09-29T00:55:42;99080.59;;;16.14;45.28
73566;BME280;61846;52.970;-3.168;2022-09-29T00:58:07;99082.17;;;16.46;44.94
73566;BME280;61846;52.970;-3.168;2022-09-29T01:00:29;99089.31;;;15.99;45.05
73566;BME280;61846;52.970;-3.168;2022-09-29T01:02:58;99088.75;;;16.21;45.12
73566;BME280;61846;52.970;-3.168;2022-09-29T01:05:22;99093.79;;;15.93;45.19
73566;BME280;61846;52.970;-3.168;2022-09-29T01:07:46;99096.96;;;16.04;44.96
73566;BME280;61846;52.970;-3.168;2022-09-29T01:10:13;99091.76;;;15.34;46.08
73566;BME280;61846;52.970;-3.168;2022-09-29T01:12:37;99096.57;;;15.87;45.76
73566;BME280;61846;52.970;-3.168;2022-09-29T01:15:02;99096.08;;;14.19;47.86
73566;BME280;61846;52.970;-3.168;2022-09-29T01:17:28;99103.16;;;16.15;45.38
73566;BME280;61846;52.970;-3.168;2022-09-29T01:20:00;99102.62;;;15.76;45.51
73566;BME280;61846;52.970;-3.168;2022-09-29T01:22:31;99106.47;;;16.37;44.60
73566;BME280;61846;52.970;-3.168;2022-09-29T01:24:54;99108.73;;;14.12;48.25
73566;BME280;61846;52.970;-3.168;2022-09-29T01:27:23;99110.97;;;15.43;46.73
73566;BME280;61846;52.970;-3.168;2022-09-29T01:32:04;99111.19;;;14.88;47.09
73566;BME280;61846;52.970;-3.168;2022-09-29T01:34:32;99115.37;;;15.47;45.41
73566;BME280;61846;52.970;-3.168;2022-09-29T01:36:57;99117.92;;;15.08;46.06
73566;BME280;61846;52.970;-3.168;2022-09-29T01:39:23;99111.36;;;15.44;45.64
73566;BME280;61846;52.970;-3.168;2022-09-29T01:41:45;99114.53;;;15.36;46.07
73566;BME280;61846;52.970;-3.168;2022-09-29T01:44:15;99120.36;;;15.87;44.98
73566;BME280;61846;52.970;-3.168;2022-09-29T01:46:35;99118.36;;;15.90;45.26
73566;BME280;61846;52.970;-3.168;2022-09-29T01:49:01;99120.39;;;15.85;44.78
73566;BME280;61846;52.970;-3.168;2022-09-29T01:51:29;99120.69;;;15.73;45.11
73566;BME280;61846;52.970;-3.168;2022-09-29T01:53:53;99132.21;;;15.84;45.03
73566;BME280;61846;52.970;-3.168;2022-09-29T01:56:20;99136.04;;;13.49;49.93
73566;BME280;61846;52.970;-3.168;2022-09-29T01:58:47;99135.95;;;14.35;48.53
73566;BME280;61846;52.970;-3.168;2022-09-29T02:01:09;99139.67;;;14.02;47.79
73566;BME280;61846;52.970;-3.168;2022-09-29T02:03:34;99140.68;;;14.89;46.44
73566;BME280;61846;52.970;-3.168;2022-09-29T02:05:58;99142.81;;;13.87;48.25
73566;BME280;61846;52.970;-3.168;2022-09-29T02:08:25;99139.84;;;13.97;48.81
73566;BME280;61846;52.970;-3.168;2022-09-29T02:10:51;99138.43;;;14.08;48.76
73566;BME280;61846;52.970;-3.168;2022-09-29T02:13:14;99137.49;;;14.82;47.19
73566;BME280;61846;52.970;-3.168;2022-09-29T02:15:43;99143.36;;;14.62;46.74
73566;BME280;61846;52.970;-3.168;2022-09-29T02:18:10;99145.61;;;14.06;47.93
73566;BME280;61846;52.970;-3.168;2022-09-29T02:20:30;99146.63;;;14.45;47.40
73566;BME280;61846;52.970;-3.168;2022-09-29T02:22:56;99145.97;;;14.92;46.91
73566;BME280;61846;52.970;-3.168;2022-09-29T02:25:21;99147.27;;;15.41;45.15
73566;BME280;61846;52.970;-3.168;2022-09-29T02:27:47;99145.67;;;15.29;45.16
73566;BME280;61846;52.970;-3.168;2022-09-29T02:30:12;99144.04;;;15.56;45.04
73566;BME280;61846;52.970;-3.168;2022-09-29T02:32:37;99145.73;;;15.70;44.43
73566;BME280;61846;52.970;-3.168;2022-09-29T02:35:05;99143.59;;;16.07;44.19
73566;BME280;61846;52.970;-3.168;2022-09-29T02:37:39;99147.95;;;15.99;44.11
73566;BME280;61846;52.970;-3.168;2022-09-29T02:40:03;99151.85;;;16.39;43.93
73566;BME280;61846;52.970;-3.168;2022-09-29T02:42:26;99148.98;;;16.15;43.58
73566;BME280;61846;52.970;-3.168;2022-09-29T02:44:59;99143.21;;;16.61;43.21
73566;BME280;61846;52.970;-3.168;2022-09-29T02:47:22;99151.73;;;16.26;43.19
73566;BME280;61846;52.970;-3.168;2022-09-29T02:49:49;99150.99;;;16.43;42.97
73566;BME280;61846;52.970;-3.168;2022-09-29T02:52:05;99153.23;;;16.01;42.58
73566;BME280;61846;52.970;-3.168;2022-09-29T02:54:40;99157.06;;;16.51;43.12
73566;BME280;61846;52.970;-3.168;2022-09-29T02:56:57;99154.67;;;16.74;42.64
73566;BME280;61846;52.970;-3.168;2022-09-29T02:59:20;99156.16;;;15.61;43.22
73566;BME280;61846;52.970;-3.168;2022-09-29T03:01:48;99161.57;;;16.28;43.05
73566;BME280;61846;52.970;-3.168;2022-09-29T03:04:08;99164.95;;;16.10;43.56
73566;BME280;61846;52.970;-3.168;2022-09-29T03:06:34;99165.49;;;16.35;43.14
73566;BME280;61846;52.970;-3.168;2022-09-29T03:08:59;99164.87;;;16.29;42.94
73566;BME280;61846;52.970;-3.168;2022-09-29T03:11:25;99168.31;;;16.40;42.74
73566;BME280;61846;52.970;-3.168;2022-09-29T03:13:50;99166.96;;;16.27;42.24
73566;BME280;61846;52.970;-3.168;2022-09-29T03:16:16;99171.93;;;16.59;42.18
73566;BME280;61846;52.970;-3.168;2022-09-29T03:18:41;99173.49;;;16.37;41.96
73566;BME280;61846;52.970;-3.168;2022-09-29T03:21:08;99179.95;;;16.26;42.16
73566;BME280;61846;52.970;-3.168;2022-09-29T03:23:32;99179.91;;;15.98;42.43
73566;BME280;61846;52.970;-3.168;2022-09-29T03:25:58;99182.31;;;16.20;41.94
73566;BME280;61846;52.970;-3.168;2022-09-29T03:28:23;99185.78;;;16.05;42.21
73566;BME280;61846;52.970;-3.168;2022-09-29T03:30:49;99187.71;;;16.34;42.51
73566;BME280;61846;52.970;-3.168;2022-09-29T03:33:14;99183.75;;;16.27;42.64
73566;BME280;61846;52.970;-3.168;2022-09-29T03:35:40;99190.94;;;16.17;42.58
73566;BME280;61846;52.970;-3.168;2022-09-29T03:38:05;99186.79;;;16.08;42.42
73566;BME280;61846;52.970;-3.168;2022-09-29T03:40:31;99187.75;;;15.97;42.68
73566;BME280;61846;52.970;-3.168;2022-09-29T03:42:56;99189.06;;;15.64;42.56
73566;BME280;61846;52.970;-3.168;2022-09-29T03:45:22;99183.33;;;16.26;42.16
73566;BME280;61846;52.970;-3.168;2022-09-29T03:47:47;99187.82;;;16.21;42.29
73566;BME280;61846;52.970;-3.168;2022-09-29T03:50:13;99192.90;;;15.90;42.10
73566;BME280;61846;52.970;-3.168;2022-09-29T03:52:38;99188.16;;;16.04;42.39
73566;BME280;61846;52.970;-3.168;2022-09-29T03:55:05;99189.16;;;16.10;42.18
73566;BME280;61846;52.970;-3.168;2022-09-29T03:57:29;99190.00;;;15.91;42.28
73566;BME280;61846;52.970;-3.168;2022-09-29T03:59:55;99194.87;;;15.99;42.08
73566;BME280;61846;52.970;-3.168;2022-09-29T04:02:20;99198.64;;;16.22;41.88
73566;BME280;61846;52.970;-3.168;2022-09-29T04:04:46;99203.30;;;15.98;42.31
73566;BME280;61846;52.970;-3.168;2022-09-29T04:07:11;99199.92;;;15.94;42.25
73566;BME280;61846;52.970;-3.168;2022-09-29T04:09:37;99201.30;;;16.04;41.97
73566;BME280;61846;52.970;-3.168;2022-09-29T04:12:03;99203.47;;;15.95;41.61
73566;BME280;61846;52.970;-3.168;2022-09-29T04:14:28;99202.76;;;15.52;42.47
73566;BME280;61846;52.970;-3.168;2022-09-29T04:16:53;99208.22;;;15.70;42.21
73566;BME280;61846;52.970;-3.168;2022-09-29T04:19:19;99212.99;;;15.94;42.32
73566;BME280;61846;52.970;-3.168;2022-09-29T04:21:45;99220.71;;;15.49;42.58
73566;BME280;61846;52.970;-3.168;2022-09-29T04:24:10;99221.65;;;15.21;43.10
73566;BME280;61846;52.970;-3.168;2022-09-29T04:26:36;99224.25;;;15.36;42.78
73566;BME280;61846;52.970;-3.168;2022-09-29T04:29:01;99226.38;;;15.55;42.24
73566;BME280;61846;52.970;-3.168;2022-09-29T04:31:27;99229.68;;;15.69;42.27
73566;BME280;61846;52.970;-3.168;2022-09-29T04:33:52;99231.45;;;15.63;42.29
73566;BME280;61846;52.970;-3.168;2022-09-29T04:36:18;99236.15;;;14.90;42.99
73566;BME280;61846;52.970;-3.168;2022-09-29T04:38:43;99238.94;;;15.21;42.73
73566;BME280;61846;52.970;-3.168;2022-09-29T04:41:09;99241.01;;;14.90;43.05
73566;BME280;61846;52.970;-3.168;2022-09-29T04:43:34;99246.54;;;15.10;42.76
73566;BME280;61846;52.970;-3.168;2022-09-29T04:46:02;99253.64;;;15.20;42.36
73566;BME280;61846;52.970;-3.168;2022-09-29T04:48:25;99253.91;;;15.41;42.23
73566;BME280;61846;52.970;-3.168;2022-09-29T04:50:51;99253.65;;;15.55;42.27
73566;BME280;61846;52.970;-3.168;2022-09-29T04:53:16;99258.05;;;15.30;42.07
73566;BME280;61846;52.970;-3.168;2022-09-29T04:55:42;99261.45;;;15.92;41.96
73566;BME280;61846;52.970;-3.168;2022-09-29T04:58:08;99266.70;;;15.27;42.58
73566;BME280;61846;52.970;-3.168;2022-09-29T05:00:33;99265.53;;;15.66;42.58
73566;BME280;61846;52.970;-3.168;2022-09-29T05:02:58;99269.94;;;14.93;42.91
73566;BME280;61846;52.970;-3.168;2022-09-29T05:05:24;99272.81;;;14.68;43.78
73566;BME280;61846;52.970;-3.168;2022-09-29T05:07:50;99270.89;;;15.14;43.32
73566;BME280;61846;52.970;-3.168;2022-09-29T05:10:15;99274.51;;;15.25;42.97
73566;BME280;61846;52.970;-3.168;2022-09-29T05:12:40;99281.62;;;15.07;43.30
73566;BME280;61846;52.970;-3.168;2022-09-29T05:15:08;99284.93;;;15.10;43.17
73566;BME280;61846;52.970;-3.168;2022-09-29T05:17:32;99288.02;;;15.11;44.04
73566;BME280;61846;52.970;-3.168;2022-09-29T05:19:57;99292.03;;;15.31;43.50
73566;BME280;61846;52.970;-3.168;2022-09-29T05:22:23;99298.60;;;15.50;43.42
73566;BME280;61846;52.970;-3.168;2022-09-29T05:24:48;99298.18;;;15.10;44.01
73566;BME280;61846;52.970;-3.168;2022-09-29T05:27:14;99298.84;;;14.83;43.90
73566;BME280;61846;52.970;-3.168;2022-09-29T05:29:39;99303.68;;;15.59;43.68
73566;BME280;61846;52.970;-3.168;2022-09-29T05:32:05;99306.24;;;15.04;44.25
73566;BME280;61846;52.970;-3.168;2022-09-29T05:34:30;99313.12;;;15.09;43.68
73566;BME280;61846;52.970;-3.168;2022-09-29T05:36:56;99317.30;;;15.70;43.62
73566;BME280;61846;52.970;-3.168;2022-09-29T05:39:21;99316.95;;;15.32;43.76
73566;BME280;61846;52.970;-3.168;2022-09-29T05:41:47;99322.56;;;15.41;43.43
73566;BME280;61846;52.970;-3.168;2022-09-29T05:44:12;99328.78;;;15.25;43.87
73566;BME280;61846;52.970;-3.168;2022-09-29T05:46:38;99325.52;;;14.91;44.15
73566;BME280;61846;52.970;-3.168;2022-09-29T05:49:03;99329.99;;;15.36;43.81
73566;BME280;61846;52.970;-3.168;2022-09-29T05:51:29;99326.60;;;15.22;44.11
73566;BME280;61846;52.970;-3.168;2022-09-29T05:53:54;99325.99;;;15.28;43.81
73566;BME280;61846;52.970;-3.168;2022-09-29T05:56:21;99327.48;;;15.40;43.48
73566;BME280;61846;52.970;-3.168;2022-09-29T05:58:45;99335.39;;;15.89;43.31
73566;BME280;61846;52.970;-3.168;2022-09-29T06:01:13;99333.71;;;15.64;43.61
73566;BME280;61846;52.970;-3.168;2022-09-29T06:03:37;99337.51;;;15.67;43.79
73566;BME280;61846;52.970;-3.168;2022-09-29T06:06:07;99339.03;;;15.34;43.79
73566;BME280;61846;52.970;-3.168;2022-09-29T06:08:27;99343.30;;;15.54;43.30
73566;BME280;61846;52.970;-3.168;2022-09-29T06:10:53;99345.61;;;15.57;43.42
73566;BME280;61846;52.970;-3.168;2022-09-29T06:13:18;99349.68;;;15.51;43.19
73566;BME280;61846;52.970;-3.168;2022-09-29T06:15:44;99354.35;;;15.63;43.16
73566;BME280;61846;52.970;-3.168;2022-09-29T06:18:09;99348.44;;;15.74;42.98
73566;BME280;61846;52.970;-3.168;2022-09-29T06:20:35;99357.83;;;15.56;42.67
73566;BME280;61846;52.970;-3.168;2022-09-29T06:23:00;99358.29;;;15.72;42.70
73566;BME280;61846;52.970;-3.168;2022-09-29T06:25:26;99360.76;;;15.42;43.13
73566;BME280;61846;52.970;-3.168;2022-09-29T06:27:51;99360.91;;;15.94;42.76
73566;BME280;61846;52.970;-3.168;2022-09-29T06:30:17;99366.61;;;15.27;43.47
73566;BME280;61846;52.970;-3.168;2022-09-29T06:32:42;99367.87;;;15.46;43.07
73566;BME280;61846;52.970;-3.168;2022-09-29T06:35:08;99366.57;;;15.18;43.56
73566;BME280;61846;52.970;-3.168;2022-09-29T06:37:33;99369.93;;;15.33;43.56
73566;BME280;61846;52.970;-3.168;2022-09-29T06:39:59;99374.53;;;15.62;43.38
73566;BME280;61846;52.970;-3.168;2022-09-29T06:42:24;99375.75;;;15.45;43.25
73566;BME280;61846;52.970;-3.168;2022-09-29T06:44:50;99379.51;;;15.48;43.15
73566;BME280;61846;52.970;-3.168;2022-09-29T06:47:15;99383.44;;;15.99;43.20
73566;BME280;61846;52.970;-3.168;2022-09-29T06:49:40;99384.83;;;15.76;43.38
73566;BME280;61846;52.970;-3.168;2022-09-29T06:52:06;99382.14;;;15.54;43.34
73566;BME280;61846;52.970;-3.168;2022-09-29T06:54:32;99383.65;;;15.56;43.29
73566;BME280;61846;52.970;-3.168;2022-09-29T06:56:57;99387.23;;;15.85;43.17
73566;BME280;61846;52.970;-3.168;2022-09-29T06:59:23;99399.49;;;15.64;43.08
73566;BME280;61846;52.970;-3.168;2022-09-29T07:01:48;99409.90;;;15.77;43.11
73566;BME280;61846;52.970;-3.168;2022-09-29T07:04:14;99412.51;;;15.93;42.94
73566;BME280;61846;52.970;-3.168;2022-09-29T07:06:39;99420.07;;;15.74;43.18
73566;BME280;61846;52.970;-3.168;2022-09-29T07:09:05;99422.90;;;15.55;43.64
73566;BME280;61846;52.970;-3.168;2022-09-29T07:11:30;99424.44;;;15.73;43.22
73566;BME280;61846;52.970;-3.168;2022-09-29T07:13:56;99425.55;;;16.03;43.52
73566;BME280;61846;52.970;-3.168;2022-09-29T07:16:22;99427.28;;;14.86;45.56
73566;BME280;61846;52.970;-3.168;2022-09-29T07:18:46;99432.86;;;15.10;45.11
73566;BME280;61846;52.970;-3.168;2022-09-29T07:21:13;99436.24;;;15.59;44.49
73566;BME280;61846;52.970;-3.168;2022-09-29T07:23:38;99435.58;;;15.51;44.33
73566;BME280;61846;52.970;-3.168;2022-09-29T07:26:04;99435.81;;;15.73;44.02
73566;BME280;61846;52.970;-3.168;2022-09-29T07:28:29;99445.03;;;16.12;43.86
73566;BME280;61846;52.970;-3.168;2022-09-29T07:30:58;99440.18;;;15.93;43.80
73566;BME280;61846;52.970;-3.168;2022-09-29T07:33:20;99451.55;;;15.78;43.84
73566;BME280;61846;52.970;-3.168;2022-09-29T07:35:45;99454.30;;;16.04;43.60
73566;BME280;61846;52.970;-3.168;2022-09-29T07:38:11;99455.83;;;16.02;43.72
73566;BME280;61846;52.970;-3.168;2022-09-29T07:40:36;99457.67;;;15.60;44.28
73566;BME280;61846;52.970;-3.168;2022-09-29T07:43:01;99466.95;;;15.77;44.02
73566;BME280;61846;52.970;-3.168;2022-09-29T07:45:27;99465.81;;;16.19;43.13
73566;BME280;61846;52.970;-3.168;2022-09-29T07:47:55;99470.37;;;16.61;42.73
73566;BME280;61846;52.970;-3.168;2022-09-29T07:50:18;99474.24;;;16.33;42.75
73566;BME280;61846;52.970;-3.168;2022-09-29T07:52:43;99473.10;;;16.68;42.48
73566;BME280;61846;52.970;-3.168;2022-09-29T07:55:09;99483.17;;;16.10;43.24
73566;BME280;61846;52.970;-3.168;2022-09-29T07:57:34;99488.42;;;15.34;45.14
73566;BME280;61846;52.970;-3.168;2022-09-29T08:00:00;99493.53;;;16.26;43.68
73566;BME280;61846;52.970;-3.168;2022-09-29T08:02:25;99493.58;;;16.05;43.11
73566;BME280;61846;52.970;-3.168;2022-09-29T08:04:51;99497.69;;;16.34;43.18
73566;BME280;61846;52.970;-3.168;2022-09-29T08:07:16;99499.64;;;15.70;43.43
73566;BME280;61846;52.970;-3.168;2022-09-29T08:09:42;99505.62;;;15.86;43.27
73566;BME280;61846;52.970;-3.168;2022-09-29T08:12:07;99516.80;;;15.25;43.79
73566;BME280;61846;52.970;-3.168;2022-09-29T08:14:33;99522.16;;;14.87;45.43
73566;BME280;61846;52.970;-3.168;2022-09-29T08:16:58;99515.63;;;15.68;44.93
73566;BME280;61846;52.970;-3.168;2022-09-29T08:19:23;99521.24;;;15.01;44.71
73566;BME280;61846;52.970;-3.168;2022-09-29T08:21:49;99523.05;;;14.85;44.75
73566;BME280;61846;52.970;-3.168;2022-09-29T08:24:15;99527.54;;;15.45;43.66
73566;BME280;61846;52.970;-3.168;2022-09-29T08:26:40;99526.18;;;16.31;43.82
73566;BME280;61846;52.970;-3.168;2022-09-29T08:29:06;99534.19;;;16.73;41.77
73566;BME280;61846;52.970;-3.168;2022-09-29T08:31:31;99538.84;;;16.48;41.97
73566;BME280;61846;52.970;-3.168;2022-09-29T08:33:57;99541.41;;;16.72;42.49
73566;BME280;61846;52.970;-3.168;2022-09-29T08:36:22;99548.54;;;17.29;40.40
73566;BME280;61846;52.970;-3.168;2022-09-29T08:38:49;99551.01;;;16.78;40.39
73566;BME280;61846;52.970;-3.168;2022-09-29T08:41:26;99548.92;;;17.09;41.58
73566;BME280;61846;52.970;-3.168;2022-09-29T08:43:39;99550.05;;;16.59;40.43
73566;BME280;61846;52.970;-3.168;2022-09-29T08:46:07;99548.66;;;17.29;39.62
73566;BME280;61846;52.970;-3.168;2022-09-29T08:48:33;99554.05;;;17.88;40.92
73566;BME280;61846;52.970;-3.168;2022-09-29T08:50:57;99553.19;;;18.15;38.86
73566;BME280;61846;52.970;-3.168;2022-09-29T08:53:20;99558.79;;;17.51;40.08
73566;BME280;61846;52.970;-3.168;2022-09-29T08:55:49;99560.42;;;17.59;37.90
73566;BME280;61846;52.970;-3.168;2022-09-29T08:58:12;99576.16;;;18.55;37.63
73566;BME280;61846;52.970;-3.168;2022-09-29T09:00:41;99582.94;;;17.43;39.19
73566;BME280;61846;52.970;-3.168;2022-09-29T09:03:12;99581.98;;;17.25;38.45
73566;BME280;61846;52.970;-3.168;2022-09-29T09:05:40;99585.94;;;16.68;39.47
73566;BME280;61846;52.970;-3.168;2022-09-29T09:07:58;99586.15;;;17.41;39.50
73566;BME280;61846;52.970;-3.168;2022-09-29T09:10:26;99595.25;;;18.08;38.28
73566;BME280;61846;52.970;-3.168;2022-09-29T09:12:54;99591.92;;;18.37;37.77
73566;BME280;61846;52.970;-3.168;2022-09-29T09:15:17;99597.90;;;18.06;36.71
73566;BME280;61846;52.970;-3.168;2022-09-29T09:17:48;99604.12;;;18.49;37.01
73566;BME280;61846;52.970;-3.168;2022-09-29T09:20:12;99607.45;;;18.08;38.60
73566;BME280;61846;52.970;-3.168;2022-09-29T09:22:32;99608.18;;;18.39;38.07
73566;BME280;61846;52.970;-3.168;2022-09-29T09:24:56;99611.39;;;19.10;35.79
73566;BME280;61846;52.970;-3.168;2022-09-29T09:27:20;99619.23;;;18.02;35.62
73566;BME280;61846;52.970;-3.168;2022-09-29T09:29:43;99620.87;;;17.86;36.22
73566;BME280;61846;52.970;-3.168;2022-09-29T09:32:09;99622.59;;;17.15;37.68
73566;BME280;61846;52.970;-3.168;2022-09-29T09:34:36;99632.05;;;18.05;36.28
73566;BME280;61846;52.970;-3.168;2022-09-29T09:37:00;99634.02;;;16.57;37.85
73566;BME280;61846;52.970;-3.168;2022-09-29T09:39:27;99638.12;;;15.55;39.90
73566;BME280;61846;52.970;-3.168;2022-09-29T09:41:51;99635.34;;;17.30;36.86
73566;BME280;61846;52.970;-3.168;2022-09-29T09:44:15;99629.90;;;17.81;37.28
73566;BME280;61846;52.970;-3.168;2022-09-29T09:46:42;99638.59;;;17.82;39.85
73566;BME280;61846;52.970;-3.168;2022-09-29T09:49:12;99635.83;;;17.65;38.39
73566;BME280;61846;52.970;-3.168;2022-09-29T09:51:37;99637.91;;;18.64;35.87
73566;BME280;61846;52.970;-3.168;2022-09-29T09:53:59;99635.08;;;18.82;37.00
73566;BME280;61846;52.970;-3.168;2022-09-29T09:56:26;99648.24;;;18.41;36.66
73566;BME280;61846;52.970;-3.168;2022-09-29T09:58:57;99646.66;;;19.09;37.22
73566;BME280;61846;52.970;-3.168;2022-09-29T10:01:11;99649.94;;;18.70;39.61
73566;BME280;61846;52.970;-3.168;2022-09-29T10:03:37;99654.13;;;18.78;36.73
73566;BME280;61846;52.970;-3.168;2022-09-29T10:06:05;99662.41;;;18.72;37.67
73566;BME280;61846;52.970;-3.168;2022-09-29T10:08:29;99667.03;;;19.16;36.47
73566;BME280;61846;52.970;-3.168;2022-09-29T10:10:53;99672.63;;;18.78;36.20
73566;BME280;61846;52.970;-3.168;2022-09-29T10:13:19;99672.46;;;18.48;37.14
73566;BME280;61846;52.970;-3.168;2022-09-29T10:15:47;99674.05;;;18.39;37.65
73566;BME280;61846;52.970;-3.168;2022-09-29T10:18:12;99672.61;;;18.64;36.24
73566;BME280;61846;52.970;-3.168;2022-09-29T10:20:36;99675.11;;;18.12;37.20
73566;BME280;61846;52.970;-3.168;2022-09-29T10:25:25;99664.23;;;19.17;34.66
73566;BME280;61846;52.970;-3.168;2022-09-29T10:27:53;99659.35;;;17.76;37.22
73566;BME280;61846;52.970;-3.168;2022-09-29T10:30:18;99659.40;;;18.89;35.47
73566;BME280;61846;52.970;-3.168;2022-09-29T10:32:43;99659.92;;;18.45;36.83
73566;BME280;61846;52.970;-3.168;2022-09-29T10:35:16;99659.73;;;19.06;37.71
73566;BME280;61846;52.970;-3.168;2022-09-29T10:37:35;99656.50;;;19.22;37.45
73566;BME280;61846;52.970;-3.168;2022-09-29T10:42:25;99659.74;;;18.53;37.32
73566;BME280;61846;52.970;-3.168;2022-09-29T10:44:51;99664.55;;;19.27;36.39
73566;BME280;61846;52.970;-3.168;2022-09-29T10:47:14;99668.92;;;20.09;34.97
73566;BME280;61846;52.970;-3.168;2022-09-29T10:49:39;99673.50;;;19.89;36.18
73566;BME280;61846;52.970;-3.168;2022-09-29T10:52:06;99667.99;;;20.53;35.31
73566;BME280;61846;52.970;-3.168;2022-09-29T10:54:33;99682.07;;;20.11;35.31
73566;BME280;61846;52.970;-3.168;2022-09-29T10:56:56;99683.00;;;20.35;34.33
73566;BME280;61846;52.970;-3.168;2022-09-29T10:59:21;99683.76;;;20.66;34.87
73566;BME280;61846;52.970;-3.168;2022-09-29T11:01:48;99687.69;;;20.89;35.24
73566;BME280;61846;52.970;-3.168;2022-09-29T11:04:17;99692.13;;;20.60;34.83
73566;BME280;61846;52.970;-3.168;2022-09-29T11:06:38;99697.87;;;20.40;33.83
73566;BME280;61846;52.970;-3.168;2022-09-29T11:09:03;99705.50;;;19.82;33.83
73566;BME280;61846;52.970;-3.168;2022-09-29T11:11:29;99709.17;;;20.10;33.46
73566;BME280;61846;52.970;-3.168;2022-09-29T11:13:53;99705.56;;;20.03;34.47
73566;BME280;61846;52.970;-3.168;2022-09-29T11:16:22;99708.83;;;19.82;35.22
73566;BME280;61846;52.970;-3.168;2022-09-29T11:18:45;99711.23;;;19.64;34.45
73566;BME280;61846;52.970;-3.168;2022-09-29T11:21:39;99720.04;;;19.98;35.11
73566;BME280;61846;52.970;-3.168;2022-09-29T11:23:38;99723.53;;;19.27;34.98
73566;BME280;61846;52.970;-3.168;2022-09-29T11:26:12;99727.69;;;19.54;35.65
73566;BME280;61846;52.970;-3.168;2022-09-29T11:28:38;99722.60;;;19.63;35.22
73566;BME280;61846;52.970;-3.168;2022-09-29T11:31:00;99723.80;;;19.49;35.67
73566;BME280;61846;52.970;-3.168;2022-09-29T11:33:22;99723.83;;;19.03;36.42
73566;BME280;61846;52.970;-3.168;2022-09-29T11:35:51;99727.53;;;18.89;36.35
73566;BME280;61846;52.970;-3.168;2022-09-29T11:40:39;99741.74;;;19.70;35.73
73566;BME280;61846;52.970;-3.168;2022-09-29T11:43:10;99746.94;;;17.70;39.98
73566;BME280;61846;52.970;-3.168;2022-09-29T11:45:30;99744.87;;;18.67;38.12
73566;BME280;61846;52.970;-3.168;2022-09-29T11:48:01;99746.93;;;19.02;37.23
73566;BME280;61846;52.970;-3.168;2022-09-29T11:50:23;99745.41;;;18.76;37.49
73566;BME280;61846;52.970;-3.168;2022-09-29T11:52:52;99750.76;;;18.96;37.16
73566;BME280;61846;52.970;-3.168;2022-09-29T11:55:13;99750.42;;;19.18;37.18
73566;BME280;61846;52.970;-3.168;2022-09-29T11:57:43;99752.65;;;19.58;37.91
73566;BME280;61846;52.970;-3.168;2022-09-29T12:00:02;99748.58;;;19.93;36.58
73566;BME280;61846;52.970;-3.168;2022-09-29T12:02:44;99744.92;;;20.20;37.05
73566;BME280;61846;52.970;-3.168;2022-09-29T12:04:53;99742.16;;;19.44;38.04
73566;BME280;61846;52.970;-3.168;2022-09-29T12:07:21;99747.81;;;19.81;36.95
73566;BME280;61846;52.970;-3.168;2022-09-29T12:12:08;99747.63;;;20.43;36.30
73566;BME280;61846;52.970;-3.168;2022-09-29T12:14:32;99746.88;;;20.62;37.20
73566;BME280;61846;52.970;-3.168;2022-09-29T12:16:57;99744.07;;;20.25;37.09
73566;BME280;61846;52.970;-3.168;2022-09-29T12:19:23;99739.24;;;20.51;36.46
73566;BME280;61846;52.970;-3.168;2022-09-29T12:21:46;99736.73;;;20.68;38.09
73566;BME280;61846;52.970;-3.168;2022-09-29T12:24:13;99731.53;;;20.66;37.51
73566;BME280;61846;52.970;-3.168;2022-09-29T12:26:35;99731.79;;;20.27;38.50
73566;BME280;61846;52.970;-3.168;2022-09-29T12:29:05;99731.69;;;20.39;37.17
73566;BME280;61846;52.970;-3.168;2022-09-29T12:31:30;99732.98;;;19.58;36.82
73566;BME280;61846;52.970;-3.168;2022-09-29T12:33:54;99735.90;;;19.62;37.89
73566;BME280;61846;52.970;-3.168;2022-09-29T12:36:25;99737.36;;;20.21;37.19
73566;BME280;61846;52.970;-3.168;2022-09-29T12:38:44;99737.20;;;20.37;37.11
73566;BME280;61846;52.970;-3.168;2022-09-29T12:41:11;99747.33;;;20.64;37.17
73566;BME280;61846;52.970;-3.168;2022-09-29T12:43:36;99745.50;;;20.43;36.34
73566;BME280;61846;52.970;-3.168;2022-09-29T12:46:04;99750.04;;;20.25;37.13
73566;BME280;61846;52.970;-3.168;2022-09-29T12:48:32;99755.99;;;19.99;37.29
73566;BME280;61846;52.970;-3.168;2022-09-29T12:50:51;99758.01;;;19.82;37.52
73566;BME280;61846;52.970;-3.168;2022-09-29T12:53:17;99756.52;;;20.03;36.77